Time;durP1;ratioP1;P1;durP2;ratioP2;P2;SDS_P1;SDS_P2;PMS_P1;PMS_P2;Temp;Humidity;BMP_temperature;BMP_pressure;BME280_temperature;BME280_humidity;BME280_pressure;Samples;Min_cycle;Max_cycle;Signal;HPM_P1;HPM_P2
2023/05/07 00:01:06;;;;;;;;;;;19.50;73.70;;;19.76;46.81;98543.28;4910574;28;124430;-86
2023/05/07 00:03:35;;;;;;;;;;;19.50;73.80;;;19.75;47.16;98558.50;4911685;28;119291;-86
2023/05/07 00:06:01;;;;;;;;;;;19.50;73.90;;;19.74;47.25;98562.47;4910262;28;118759;-86
2023/05/07 00:08:27;;;;;;;;;;;19.50;74.00;;;19.71;47.25;98557.63;4910265;28;124284;-87
2023/05/07 00:10:56;;;;;;;;;;;19.50;74.10;;;19.67;47.23;98554.00;4909370;28;123138;-87
2023/05/07 00:13:23;;;;;;;;;;;19.50;74.20;;;;;;4909732;28;119685;-87
2023/05/07 00:15:49;;;;;;;;;;;19.40;74.20;;;19.60;47.19;98556.66;4909617;28;119203;-86
2023/05/07 00:18:22;;;;;;;;;;;19.40;74.40;;;19.58;47.51;98564.63;4894994;28;124013;-87
2023/05/07 00:20:48;;;;;;;;;;;19.40;74.50;;;19.54;47.44;98555.38;4906951;28;123868;-86
2023/05/07 00:23:16;;;;;;;;;;;19.30;74.50;;;19.53;47.70;98562.13;4908519;28;120840;-87
2023/05/07 00:25:42;;;;;;;;;;;19.30;74.80;;;19.51;47.73;98559.72;4911580;28;119481;-86
2023/05/07 00:28:11;;;;;;;;;;;19.30;75.00;;;19.50;47.93;98551.69;4910115;28;124364;-87
2023/05/07 00:30:37;;;;;;;;;;;19.30;75.20;;;19.47;47.75;98558.84;4911426;28;124100;-85
2023/05/07 00:33:06;;;;;;;;;;;19.20;75.30;;;19.43;47.87;98549.63;4913091;28;119677;-86
2023/05/07 00:35:32;;;;;;;;;;;19.20;75.50;;;19.39;48.10;98545.94;4896105;28;118525;-86
2023/05/07 00:37:58;;;;;;;;;;;19.20;75.50;;;19.36;48.28;98552.28;4908689;28;125671;-86
2023/05/07 00:40:25;;;;;;;;;;;19.10;75.60;;;19.34;48.27;98549.88;4908902;28;124490;-86
2023/05/07 00:42:56;;;;;;;;;;;19.20;76.20;;;19.32;48.31;98546.66;4909386;28;119962;-87
2023/05/07 00:45:24;;;;;;;;;;;19.10;76.00;;;19.31;48.63;98545.00;4905575;28;118601;-86
2023/05/07 00:47:50;;;;;;;;;;;19.10;76.20;;;19.29;48.59;98536.19;4908565;28;123726;-86
2023/05/07 00:50:19;;;;;;;;;;;19.10;76.40;;;19.25;48.76;98540.94;4908257;28;124488;-85
2023/05/07 00:52:50;;;;;;;;;;;19.00;76.60;;;19.22;48.79;98533.28;4909827;28;119544;-88
2023/05/07 00:55:22;;;;;;;;;;;19.00;76.80;;;19.18;48.87;98535.22;4915863;28;118842;-88
2023/05/07 00:57:56;;;;;;;;;;;19.00;77.00;;;19.17;48.89;98534.41;4916571;28;125072;-87
2023/05/07 01:00:25;;;;;;;;;;;18.90;77.10;;;19.14;49.01;98534.34;4923690;28;123655;-89
2023/05/07 01:02:54;;;;;;;;;;;18.90;77.30;;;19.11;49.09;98535.13;4924389;28;119790;-87
2023/05/07 01:05:23;;;;;;;;;;;18.90;77.50;;;19.10;49.23;98533.47;4923623;28;119278;-88
2023/05/07 01:07:49;;;;;;;;;;;18.90;77.80;;;19.06;49.41;98530.63;4898795;28;122367;-87
2023/05/07 01:10:16;;;;;;;;;;;18.80;77.80;;;19.04;49.29;98530.19;4911635;28;123672;-87
2023/05/07 01:12:44;;;;;;;;;;;18.80;77.90;;;19.03;49.70;98533.38;4908479;28;120409;-85
2023/05/07 01:15:15;;;;;;;;;;;18.80;78.10;;;19.00;49.64;98534.94;4909168;28;119880;-86
2023/05/07 01:17:42;;;;;;;;;;;18.70;78.30;;;18.96;49.51;98532.06;4902971;28;124217;-86
2023/05/07 01:20:11;;;;;;;;;;;18.70;78.40;;;18.97;49.64;98532.91;4907518;28;124125;-88
2023/05/07 01:22:38;;;;;;;;;;;18.70;78.50;;;18.94;49.59;98528.84;4908242;28;119475;-87
2023/05/07 01:25:05;;;;;;;;;;;18.70;78.60;;;18.94;49.63;98537.25;4897336;28;118578;-86
2023/05/07 01:27:33;;;;;;;;;;;18.70;78.80;;;18.94;49.70;98533.63;4910757;28;122642;-87
2023/05/07 01:29:59;;;;;;;;;;;18.70;78.90;;;18.91;49.84;98532.41;4909196;28;123725;-88
2023/05/07 01:32:37;;;;;;;;;;;18.60;79.00;;;18.89;49.89;98523.56;4910614;28;119396;-86
2023/05/07 01:35:06;;;;;;;;;;;18.60;79.20;;;18.88;49.90;98529.53;4909344;28;118834;-88
2023/05/07 01:37:35;;;;;;;;;;;18.60;79.30;;;18.85;49.97;98525.50;4909804;28;124128;-87
2023/05/07 01:40:02;;;;;;;;;;;18.60;79.50;;;18.83;50.15;98532.66;4908863;28;123862;-88
2023/05/07 01:42:29;;;;;;;;;;;18.60;79.60;;;18.82;50.15;98528.25;4898672;28;120035;-87
2023/05/07 01:44:56;;;;;;;;;;;18.60;79.70;;;18.80;50.25;98536.19;4910247;28;117856;-88
2023/05/07 01:47:22;;;;;;;;;;;16.70;78.00;;;18.79;50.36;98531.78;4901160;28;124319;-86
2023/05/07 01:49:49;;;;;;;;;;;18.50;79.90;;;18.77;50.06;98534.94;4910934;28;124397;-86
2023/05/07 01:52:15;;;;;;;;;;;18.50;80.00;;;18.79;50.33;98534.59;4915299;28;119450;-88
2023/05/07 01:54:42;;;;;;;;;;;18.50;80.10;;;18.75;50.35;98531.72;4914664;28;118168;-87
2023/05/07 01:57:09;;;;;;;;;;;18.50;80.30;;;18.73;50.42;98531.25;4912198;28;125353;-87
2023/05/07 01:59:35;;;;;;;;;;;18.50;80.40;;;18.72;50.53;98529.63;4910770;28;122987;-85
2023/05/07 02:02:01;;;;;;;;;;;18.40;80.50;;;18.70;50.56;98527.22;4908891;28;120658;-87
2023/05/07 02:04:28;;;;;;;;;;;18.40;80.60;;;18.69;50.41;98539.59;4913916;28;119431;-86
2023/05/07 02:06:56;;;;;;;;;;;18.40;80.70;;;18.67;50.74;98527.97;4909745;28;124655;-87
2023/05/07 02:09:24;;;;;;;;;;;18.40;80.90;;;18.64;50.84;98533.47;4897834;28;123291;-87
2023/05/07 02:11:51;;;;;;;;;;;18.40;81.20;;;18.62;50.91;98536.69;4906585;28;118755;-87
2023/05/07 02:14:17;;;;;;;;;;;18.40;81.30;;;18.61;51.00;98528.63;4912957;28;118938;-86
2023/05/07 02:16:44;;;;;;;;;;;18.30;81.30;;;18.60;50.92;98530.63;4913052;28;124222;-87
2023/05/07 02:19:13;;;;;;;;;;;18.20;81.40;;;18.58;51.15;98534.97;4912560;28;124380;-88
2023/05/07 02:21:39;;;;;;;;;;;18.30;81.70;;;18.55;51.40;98528.94;4910859;28;119517;-87
2023/05/07 02:24:06;;;;;;;;;;;18.30;81.80;;;18.52;51.24;98535.28;4912145;28;118501;-87
2023/05/07 02:26:32;;;;;;;;;;;18.30;82.00;;;18.50;51.29;98528.44;4910120;28;124466;-87
2023/05/07 02:29:00;;;;;;;;;;;18.20;82.30;;;18.50;51.30;98534.03;4911190;28;125983;-86
2023/05/07 02:31:27;;;;;;;;;;;18.20;82.10;;;18.49;51.36;98533.25;4908938;28;119422;-88
2023/05/07 02:33:55;;;;;;;;;;;18.20;82.20;;;18.48;51.56;98534.44;4912832;28;96782;-87
2023/05/07 02:36:21;;;;;;;;;;;18.20;82.40;;;18.46;51.56;98527.59;4908643;28;124499;-87
2023/05/07 02:38:47;;;;;;;;;;;18.20;82.50;;;18.44;51.61;98525.16;4909114;28;123126;-87
2023/05/07 02:41:14;;;;;;;;;;;18.20;82.60;;;18.45;51.60;98528.75;4909026;28;119622;-86
2023/05/07 02:43:40;;;;;;;;;;;18.20;82.80;;;18.43;51.66;98529.16;4910285;28;118186;-86
2023/05/07 02:46:08;;;;;;;;;;;18.20;82.80;;;18.41;51.49;98534.28;4908979;28;124537;-85
2023/05/07 02:48:34;;;;;;;;;;;18.10;82.80;;;18.42;51.55;98533.09;4908767;28;123373;-84
2023/05/07 02:51:04;;;;;;;;;;;18.10;82.80;;;18.39;51.54;98524.66;4907445;28;120801;-86
2023/05/07 02:53:32;;;;;;;;;;;18.10;82.90;;;18.36;51.61;98536.59;4906746;28;119599;-86
2023/05/07 02:56:00;;;;;;;;;;;18.10;83.00;;;18.32;51.88;98533.69;4907165;28;124555;-86
2023/05/07 02:58:27;;;;;;;;;;;18.10;83.10;;;18.28;51.85;98524.44;4906758;28;123884;-87
2023/05/07 03:00:54;;;;;;;;;;;18.00;83.70;;;18.25;51.83;98534.38;4902007;28;118642;-87
2023/05/07 03:03:21;;;;;;;;;;;18.00;83.10;;;18.24;51.71;98520.75;4905929;28;118036;-88
2023/05/07 03:05:47;;;;;;;;;;;18.00;83.30;;;18.23;51.99;98524.75;4907552;28;124055;-87
2023/05/07 03:08:13;;;;;;;;;;;17.90;83.30;;;18.21;51.93;98516.72;4909520;28;123204;-86
2023/05/07 03:10:40;;;;;;;;;;;18.00;83.50;;;18.20;51.96;98519.91;4907837;28;119293;-86
2023/05/07 03:13:06;;;;;;;;;;;17.90;83.50;;;18.17;51.99;98506.66;4907979;28;118884;-85
2023/05/07 03:15:32;;;;;;;;;;;17.90;83.60;;;18.16;52.07;98507.81;4907353;28;124842;-86
2023/05/07 03:17:59;;;;;;;;;;;17.90;83.70;;;18.12;51.99;98491.00;4907725;28;123617;-86
2023/05/07 03:20:25;;;;;;;;;;;17.90;83.80;;;18.10;52.15;98496.94;4907824;28;119929;-86
2023/05/07 03:22:51;;;;;;;;;;;17.80;84.10;;;18.08;52.18;98496.53;4908109;28;118652;-87
2023/05/07 03:25:18;;;;;;;;;;;17.80;84.00;;;18.06;52.29;98501.66;4909988;28;122873;-88
2023/05/07 03:27:44;;;;;;;;;;;17.80;84.10;;;18.05;52.12;98514.03;4897247;28;124159;-87
2023/05/07 03:30:11;;;;;;;;;;;17.80;84.20;;;18.04;52.45;98511.59;4922141;28;119483;-85
2023/05/07 03:32:37;;;;;;;;;;;17.80;84.40;;;18.01;52.41;98507.56;4909519;28;119273;-85
2023/05/07 03:35:04;;;;;;;;;;;17.80;84.50;;;17.97;52.55;98505.88;4906045;28;124017;-86
2023/05/07 03:37:31;;;;;;;;;;;17.70;84.60;;;17.97;52.75;98511.44;4907429;28;123539;-86
2023/05/07 03:39:57;;;;;;;;;;;17.70;84.70;;;17.93;52.44;98516.97;4904901;28;121102;-85
2023/05/07 03:42:26;;;;;;;;;;;17.70;84.70;;;17.90;52.84;98523.31;4907158;28;119741;-86
2023/05/07 03:44:54;;;;;;;;;;;17.70;84.90;;;17.88;52.70;98529.25;4905359;28;124167;-86
2023/05/07 03:47:20;;;;;;;;;;;17.60;84.80;;;17.85;52.71;98516.03;4907469;28;124779;-87
2023/05/07 03:49:48;;;;;;;;;;;17.60;85.40;;;17.83;53.15;98523.97;4905749;28;119545;-87
2023/05/07 03:52:15;;;;;;;;;;;17.50;85.30;;;17.81;53.05;98519.91;4907376;28;119312;-86
2023/05/07 03:54:41;;;;;;;;;;;17.50;85.40;;;17.79;53.11;98522.28;4906590;28;124322;-88
2023/05/07 03:57:10;;;;;;;;;;;17.50;85.50;;;17.78;53.20;98526.22;4909404;28;123392;-86
2023/05/07 03:59:38;;;;;;;;;;;17.50;85.80;;;17.76;53.38;98528.56;4906411;28;119656;-86
2023/05/07 04:02:05;;;;;;;;;;;17.50;85.90;;;17.74;53.42;98526.16;4907044;28;118696;-85
2023/05/07 04:04:34;;;;;;;;;;;17.40;86.40;;;17.72;53.41;98519.31;4906151;28;125166;-85
2023/05/07 04:07:00;;;;;;;;;;;17.50;86.30;;;17.71;53.68;98521.28;4908554;28;123095;-86
2023/05/07 04:09:26;;;;;;;;;;;17.40;86.80;;;17.67;53.63;98524.00;4906885;28;119573;-86
2023/05/07 04:11:53;;;;;;;;;;;17.40;86.50;;;17.67;53.69;98537.97;4907738;28;118696;-86
2023/05/07 04:14:23;;;;;;;;;;;17.40;86.80;;;17.65;53.85;98529.16;4911380;28;124000;-86
2023/05/07 04:16:49;;;;;;;;;;;17.40;86.90;;;17.62;53.88;98524.31;4910902;28;122826;-86
2023/05/07 04:19:16;;;;;;;;;;;17.40;87.10;;;17.60;54.04;98525.84;4913109;28;118875;-85
2023/05/07 04:21:45;;;;;;;;;;;17.40;87.10;;;17.58;53.88;98534.59;4905180;28;117723;-85
2023/05/07 04:24:11;;;;;;;;;;;17.30;87.40;;;17.58;54.05;98534.59;4910445;28;124055;-85
2023/05/07 04:26:38;;;;;;;;;;;17.30;87.50;;;17.56;54.20;98545.31;4912132;28;124411;-85
2023/05/07 04:29:04;;;;;;;;;;;17.30;88.20;;;17.54;54.15;98544.84;4906978;28;119278;-85
2023/05/07 04:31:33;;;;;;;;;;;17.20;87.60;;;17.54;54.36;98544.84;4910054;28;119490;-86
2023/05/07 04:34:00;;;;;;;;;;;17.30;88.00;;;17.55;54.51;98546.50;4910812;28;123665;-87
2023/05/07 04:36:36;;;;;;;;;;;18.00;88.90;;;17.52;54.62;98546.44;4912309;28;124111;-85
2023/05/07 04:39:02;;;;;;;;;;;17.20;88.20;;;17.48;54.50;98551.09;4909357;28;118800;-85
2023/05/07 04:41:29;;;;;;;;;;;17.20;88.30;;;17.48;54.61;98554.69;4908947;28;118722;-86
2023/05/07 04:43:58;;;;;;;;;;;17.20;88.40;;;17.49;54.59;98545.16;4908972;28;125003;-87
2023/05/07 04:46:24;;;;;;;;;;;17.20;88.60;;;17.50;54.75;98546.78;4909436;28;121883;-86
2023/05/07 04:48:51;;;;;;;;;;;17.20;88.70;;;17.50;54.82;98546.78;4909021;28;119488;-85
2023/05/07 04:51:17;;;;;;;;;;;17.20;89.40;;;17.50;54.58;98555.16;4910714;28;117755;-85
2023/05/07 04:53:45;;;;;;;;;;;17.20;88.90;;;17.51;54.59;98553.97;4908763;28;124501;-86
2023/05/07 04:56:14;;;;;;;;;;;17.20;89.00;;;17.52;54.63;98563.19;4908460;28;123240;-85
2023/05/07 04:58:40;;;;;;;;;;;17.50;89.90;;;17.52;54.69;98563.19;4909053;28;119541;-87
2023/05/07 05:01:09;;;;;;;;;;;17.20;89.10;;;17.52;54.62;98552.81;4909374;28;118478;-86
2023/05/07 05:03:36;;;;;;;;;;;17.20;89.30;;;17.53;54.52;98560.00;4908750;28;126902;-86
2023/05/07 05:06:02;;;;;;;;;;;17.20;89.20;;;17.52;54.65;98564.00;4894933;28;123201;-85
2023/05/07 05:08:33;;;;;;;;;;;17.20;89.20;;;17.52;54.40;98564.00;4910352;28;118869;-86
2023/05/07 05:11:02;;;;;;;;;;;17.20;89.30;;;17.53;54.64;98570.38;4909574;28;119253;-86
2023/05/07 05:13:28;;;;;;;;;;;17.20;89.30;;;17.52;54.69;98569.56;4908778;28;123989;-85
2023/05/07 05:15:57;;;;;;;;;;;17.20;89.30;;;17.53;54.53;98573.97;4908134;28;123967;-86
2023/05/07 05:18:23;;;;;;;;;;;17.20;89.50;;;17.53;54.76;98576.78;4907350;28;120331;-87
2023/05/07 05:20:51;;;;;;;;;;;17.20;89.50;;;17.55;54.77;98568.03;4907208;28;120121;-86
2023/05/07 05:23:17;;;;;;;;;;;17.20;89.60;;;17.55;54.59;98571.63;4908646;28;123189;-87
2023/05/07 05:25:46;;;;;;;;;;;17.20;89.70;;;17.56;54.60;98576.03;4907688;28;123348;-85
2023/05/07 05:28:12;;;;;;;;;;;17.20;89.70;;;17.57;54.49;98576.84;4900963;28;119530;-86
2023/05/07 05:30:39;;;;;;;;;;;17.20;89.70;;;17.59;54.56;98591.25;4908020;28;119367;-86
2023/05/07 05:33:09;;;;;;;;;;;17.20;89.70;;;17.58;54.52;98587.66;4910635;28;124246;-86
2023/05/07 05:35:35;;;;;;;;;;;17.30;89.70;;;17.60;54.50;98582.53;4908603;28;124213;-85
2023/05/07 05:38:02;;;;;;;;;;;17.30;90.10;;;17.63;54.22;98576.22;4908233;28;120132;-86
2023/05/07 05:40:28;;;;;;;;;;;17.30;89.60;;;17.65;54.11;98573.88;4908790;28;118948;-85
2023/05/07 05:43:00;;;;;;;;;;;17.30;89.40;;;17.72;53.96;98569.59;4907713;28;124268;-87
2023/05/07 05:45:26;;;;;;;;;;;17.30;89.40;;;17.77;53.97;98577.69;4908574;28;123526;-86
2023/05/07 05:48:02;;;;;;;;;;;17.40;89.30;;;17.81;53.52;98581.41;4908154;28;119466;-81
2023/05/07 05:50:28;;;;;;;;;;;17.40;89.20;;;17.82;53.63;98578.25;4903794;28;118734;-84
2023/05/07 05:52:57;;;;;;;;;;;17.40;89.10;;;17.81;53.48;98576.63;4907053;28;126193;-85
2023/05/07 05:55:23;;;;;;;;;;;17.40;89.10;;;17.77;53.68;98586.09;4908694;28;123713;-87
2023/05/07 05:57:50;;;;;;;;;;;17.40;88.90;;;17.72;53.76;98587.16;4907852;28;120579;-86
2023/05/07 06:00:22;;;;;;;;;;;17.40;88.90;;;17.74;53.73;98582.03;4908865;28;118728;-87
2023/05/07 06:02:48;;;;;;;;;;;17.50;89.00;;;17.79;53.75;98586.56;4906665;28;125598;-87
2023/05/07 06:05:15;;;;;;;;;;;17.40;89.10;;;17.85;53.94;98593.47;4908051;28;124316;-87
2023/05/07 06:07:41;;;;;;;;;;;17.50;89.30;;;17.92;53.81;98593.63;4906767;28;120557;-87
2023/05/07 06:10:08;;;;;;;;;;;17.50;89.40;;;17.95;53.74;98598.50;4907710;28;119979;-87
2023/05/07 06:12:34;;;;;;;;;;;17.50;89.60;;;18.01;53.91;98596.22;4905700;28;124199;-87
2023/05/07 06:15:01;;;;;;;;;;;17.60;89.60;;;18.02;53.66;98598.63;4906599;28;124332;-87
2023/05/07 06:17:30;;;;;;;;;;;17.60;89.70;;;18.05;53.86;98592.31;4908104;28;120406;-88
2023/05/07 06:19:56;;;;;;;;;;;17.60;89.70;;;18.09;53.98;98596.00;4907509;28;118495;-87
2023/05/07 06:22:22;;;;;;;;;;;17.70;89.90;;;18.12;53.94;98593.66;4900558;28;124129;-88
2023/05/07 06:24:51;;;;;;;;;;;17.00;89.10;;;18.12;53.95;98591.66;4909179;28;123150;-88
2023/05/07 06:27:18;;;;;;;;;;;17.80;89.90;;;18.13;53.82;98595.25;4907572;28;120632;-88
2023/05/07 06:29:44;;;;;;;;;;;17.80;90.00;;;18.09;53.99;98603.56;4906265;28;119425;-87
2023/05/07 06:32:12;;;;;;;;;;;17.70;90.00;;;18.07;54.25;98601.13;4906657;28;124383;-86
2023/05/07 06:34:39;;;;;;;;;;;17.70;90.00;;;18.12;54.27;98599.25;4905070;28;124133;-87
2023/05/07 06:37:06;;;;;;;;;;;17.70;90.10;;;18.19;54.40;98604.94;4907206;28;119462;-86
2023/05/07 06:39:33;;;;;;;;;;;17.80;90.20;;;18.27;54.12;98607.56;4905903;28;119313;-89
2023/05/07 06:42:00;;;;;;;;;;;17.90;90.20;;;18.40;54.09;98605.38;4907460;28;124734;-88
2023/05/07 06:44:26;;;;;;;;;;;17.90;90.30;;;18.49;54.09;98605.97;4907523;28;123877;-86
2023/05/07 06:46:53;;;;;;;;;;;18.00;90.30;;;18.55;53.88;98598.91;4905488;28;118937;-86
2023/05/07 06:49:21;;;;;;;;;;;18.10;90.30;;;18.58;53.74;98602.13;4907364;28;119225;-87
2023/05/07 06:51:48;;;;;;;;;;;18.10;90.30;;;18.62;53.94;98603.00;4907121;28;124223;-87
2023/05/07 06:54:14;;;;;;;;;;;18.10;90.30;;;18.68;53.96;98602.34;4892439;28;122953;-88
2023/05/07 06:56:40;;;;;;;;;;;18.20;90.40;;;18.76;53.74;98603.31;4908455;28;119213;-87
2023/05/07 06:59:07;;;;;;;;;;;18.20;90.40;;;18.84;53.44;98602.25;4908884;28;119385;-87
2023/05/07 07:01:33;;;;;;;;;;;18.30;90.40;;;18.91;53.42;98598.78;4907295;28;124319;-87
2023/05/07 07:04:00;;;;;;;;;;;18.30;90.30;;;18.98;53.04;98599.69;4907091;28;123799;-87
2023/05/07 07:06:31;;;;;;;;;;;18.40;90.20;;;19.04;52.95;98597.41;4907480;28;119534;-87
2023/05/07 07:08:58;;;;;;;;;;;18.40;90.10;;;19.11;52.60;98600.31;4908807;28;117841;-87
2023/05/07 07:11:25;;;;;;;;;;;18.50;90.10;;;19.19;52.60;98595.66;4908851;28;123055;-87
2023/05/07 07:13:53;;;;;;;;;;;18.60;90.00;;;19.26;52.05;98590.16;4907109;28;124027;-87
2023/05/07 07:16:21;;;;;;;;;;;18.70;89.50;;;19.38;51.99;98589.97;4908876;28;119388;-88
2023/05/07 07:18:47;;;;;;;;;;;18.70;89.30;;;19.45;51.67;98588.44;4906446;28;119290;-87
2023/05/07 07:21:14;;;;;;;;;;;18.80;89.20;;;19.53;51.64;98585.41;4906652;28;124156;-88
2023/05/07 07:23:40;;;;;;;;;;;18.90;89.10;;;19.60;51.81;98581.88;4906558;28;124505;-88
2023/05/07 07:26:07;;;;;;;;;;;19.00;89.10;;;19.70;51.10;98583.25;4908679;28;119839;-87
2023/05/07 07:28:33;;;;;;;;;;;19.10;88.70;;;19.77;51.06;98588.94;4896165;28;118673;-88
2023/05/07 07:31:00;;;;;;;;;;;19.10;88.30;;;19.86;50.61;98590.28;4909306;28;123746;-88
2023/05/07 07:33:26;;;;;;;;;;;19.20;88.30;;;19.96;50.75;98586.03;4901212;28;124069;-88
2023/05/07 07:35:52;;;;;;;;;;;19.30;88.10;;;20.06;50.62;98588.13;4906468;28;119188;-88
2023/05/07 07:38:19;;;;;;;;;;;19.40;88.10;;;20.19;50.20;98588.69;4907248;28;118979;-87
2023/05/07 07:40:47;;;;;;;;;;;19.50;88.00;;;20.29;50.21;98588.03;4905599;28;124193;-86
2023/05/07 07:43:13;;;;;;;;;;;19.60;87.90;;;20.43;50.27;98580.97;4906932;28;123952;-87
2023/05/07 07:45:40;;;;;;;;;;;19.80;87.90;;;20.55;50.13;98577.09;4903955;28;120352;-88
2023/05/07 07:48:06;;;;;;;;;;;19.90;87.80;;;20.73;49.74;98589.34;4910119;28;119734;-89
2023/05/07 07:50:32;;;;;;;;;;;20.00;87.80;;;20.87;49.56;98589.47;4910544;28;124235;-89
2023/05/07 07:52:58;;;;;;;;;;;20.20;87.40;;;20.99;48.99;98579.16;4910706;28;124285;-89
2023/05/07 07:55:26;;;;;;;;;;;20.30;87.20;;;21.08;48.75;98582.44;4912269;28;119350;-89
2023/05/07 07:57:52;;;;;;;;;;;20.40;86.70;;;21.17;48.62;98586.53;4909882;28;118847;-87
2023/05/07 08:00:19;;;;;;;;;;;20.50;86.60;;;21.28;48.40;98580.19;4910306;28;124253;-89
2023/05/07 08:02:45;;;;;;;;;;;20.60;86.40;;;21.33;48.39;98585.44;4909553;28;123805;-88
2023/05/07 08:05:11;;;;;;;;;;;20.70;85.90;;;21.37;48.21;98575.03;4912583;28;119437;-87
2023/05/07 08:07:37;;;;;;;;;;;20.80;85.70;;;21.42;48.08;98585.16;4903144;28;119012;-89
2023/05/07 08:10:06;;;;;;;;;;;20.90;85.60;;;21.48;48.01;98575.94;4894959;28;125263;-86
2023/05/07 08:12:32;;;;;;;;;;;20.90;85.50;;;21.56;47.88;98579.63;4909650;28;124534;-89
2023/05/07 08:14:59;;;;;;;;;;;21.00;85.20;;;21.62;47.46;98584.47;4909382;28;119440;-87
2023/05/07 08:17:25;;;;;;;;;;;21.00;84.90;;;21.70;47.68;98585.31;4909971;28;118796;-86
2023/05/07 08:19:54;;;;;;;;;;;21.10;84.70;;;21.75;47.03;98581.34;4909720;28;124148;-87
2023/05/07 08:22:21;;;;;;;;;;;21.20;84.60;;;21.83;47.09;98585.81;4911532;28;123169;-87
2023/05/07 08:24:48;;;;;;;;;;;21.20;84.40;;;21.91;47.18;98584.66;4901038;28;119508;-88
2023/05/07 08:27:14;;;;;;;;;;;21.30;84.30;;;22.00;46.79;98587.94;4910659;28;118918;-89
2023/05/07 08:29:40;;;;;;;;;;;21.40;84.10;;;22.07;46.62;98575.88;4908133;28;124328;-89
2023/05/07 08:32:07;;;;;;;;;;;21.50;83.40;;;22.14;46.35;98578.75;4910065;28;123829;-88
2023/05/07 08:34:33;;;;;;;;;;;21.50;82.90;;;22.19;46.03;98578.41;4912424;28;120926;-87
2023/05/07 08:36:59;;;;;;;;;;;21.60;82.60;;;22.24;46.00;98577.97;4909674;28;118735;-91
2023/05/07 08:39:27;;;;;;;;;;;21.70;82.70;;;22.35;46.12;98578.03;4909520;28;124216;-88
2023/05/07 08:41:56;;;;;;;;;;;21.70;83.00;;;22.48;46.23;98576.47;4908996;28;124025;-89
2023/05/07 08:44:27;;;;;;;;;;;21.90;83.20;;;22.59;46.05;98576.50;4909630;28;119696;-89
2023/05/07 08:46:58;;;;;;;;;;;21.90;82.90;;;22.71;45.70;98578.13;4908351;28;118458;-89
2023/05/07 08:49:24;;;;;;;;;;;22.10;82.70;;;22.82;44.48;98580.97;4912583;28;123931;-87
2023/05/07 08:51:51;;;;;;;;;;;22.20;81.20;;;22.83;44.01;98582.56;4907706;28;124408;-87
2023/05/07 08:54:20;;;;;;;;;;;22.20;80.50;;;22.86;44.15;98578.94;4909118;28;119886;-88
2023/05/07 08:56:46;;;;;;;;;;;22.30;80.50;;;22.89;44.17;98581.78;4908566;28;118705;-86
2023/05/07 08:59:13;;;;;;;;;;;22.30;80.20;;;22.93;44.15;98576.16;4893943;28;123657;-88
2023/05/07 09:01:42;;;;;;;;;;;22.40;79.80;;;22.99;43.66;98579.41;4907186;28;123969;-90
2023/05/07 09:04:09;;;;;;;;;;;22.40;79.50;;;23.07;44.05;98573.38;4909675;28;120059;-88
2023/05/07 09:06:36;;;;;;;;;;;22.50;79.90;;;23.15;43.78;98577.00;4912055;28;118406;-82
2023/05/07 09:09:05;;;;;;;;;;;22.50;79.60;;;23.24;43.51;98573.75;4908606;28;124828;-80
2023/05/07 09:11:31;;;;;;;;;;;22.60;79.20;;;23.33;43.44;98565.72;4908684;28;124631;-78
2023/05/07 09:14:01;;;;;;;;;;;22.70;79.30;;;23.42;42.98;98573.75;4907821;28;119938;-78
2023/05/07 09:16:30;;;;;;;;;;;22.80;78.70;;;23.46;43.19;98566.91;4904692;28;118724;-82
2023/05/07 09:18:58;;;;;;;;;;;22.90;78.80;;;23.55;43.06;98566.50;4907770;28;124157;-83
2023/05/07 09:21:27;;;;;;;;;;;22.90;78.40;;;23.63;42.35;98556.81;4911104;28;124021;-80
2023/05/07 09:23:55;;;;;;;;;;;23.00;78.00;;;23.67;42.21;98560.44;4906668;28;119464;-81
2023/05/07 09:26:24;;;;;;;;;;;23.10;77.30;;;23.70;42.32;98556.00;4891140;28;119771;-84
2023/05/07 09:28:51;;;;;;;;;;;23.10;77.20;;;23.75;42.53;98553.59;4902919;28;124565;-81
2023/05/07 09:31:17;;;;;;;;;;;23.20;77.40;;;23.80;42.12;98549.53;4906371;28;124002;-83
2023/05/07 09:33:46;;;;;;;;;;;23.20;77.00;;;23.86;42.33;98542.28;4907756;28;119513;-80
2023/05/07 09:36:14;;;;;;;;;;;23.30;77.20;;;23.93;41.89;98547.06;4909766;28;117773;-82
2023/05/07 09:38:41;;;;;;;;;;;23.40;76.80;;;23.97;41.86;98542.25;4907659;28;124191;-82
2023/05/07 09:41:11;;;;;;;;;;;23.40;76.50;;;24.02;41.75;98550.28;4908887;28;123435;-82
2023/05/07 09:43:39;;;;;;;;;;;23.50;76.50;;;24.06;41.84;98547.44;4909943;28;118665;-83
2023/05/07 09:46:32;;;;;;;;;;;23.60;76.20;;;24.08;41.62;98543.00;4894395;28;117827;-83
2023/05/07 09:49:01;;;;;;;;;;;23.60;76.00;;;24.15;41.10;98542.16;4869661;28;125447;-84
2023/05/07 09:51:38;;;;;;;;;;;23.60;75.40;;;24.16;40.97;98544.56;4870551;28;124631;-80
2023/05/07 09:54:04;;;;;;;;;;;23.60;74.90;;;24.19;41.07;98537.31;4869282;28;118777;-80
2023/05/07 09:56:31;;;;;;;;;;;23.70;75.50;;;24.23;40.57;98538.91;4868404;28;118207;-80
2023/05/07 09:59:03;;;;;;;;;;;23.70;73.80;;;24.27;40.24;98538.06;4870624;28;124389;-83
2023/05/07 10:01:33;;;;;;;;;;;23.80;73.70;;;24.33;40.25;98550.53;4852241;28;123802;-82
2023/05/07 10:04:05;;;;;;;;;;;23.90;73.60;;;24.37;40.47;98540.84;4869789;28;119613;-81
2023/05/07 10:06:31;;;;;;;;;;;23.90;73.60;;;24.41;40.05;98535.16;4855126;28;119096;-81
2023/05/07 10:09:02;;;;;;;;;;;23.90;73.10;;;24.46;40.48;98538.38;4866478;28;124490;-85
2023/05/07 10:11:33;;;;;;;;;;;24.00;73.50;;;24.49;40.11;98522.63;4867420;28;123937;-79
2023/05/07 10:14:05;;;;;;;;;;;24.00;73.10;;;24.54;40.45;98530.69;4870031;28;119163;-84
2023/05/07 10:16:39;;;;;;;;;;;24.00;73.50;;;24.61;39.73;98530.66;4867056;28;119610;-84
2023/05/07 10:19:07;;;;;;;;;;;24.20;72.90;;;24.64;39.52;98518.50;4869233;28;123538;-85
2023/05/07 10:21:37;;;;;;;;;;;24.20;72.20;;;24.71;39.57;98517.66;4850740;28;124257;-81
2023/05/07 10:24:25;;;;;;;;;;;24.20;72.20;;;24.72;39.49;98513.63;4867239;28;119383;-84
2023/05/07 10:26:52;;;;;;;;;;;24.20;72.20;;;24.75;39.46;98512.78;4898018;28;118090;-84
2023/05/07 10:29:53;;;;;;;;;;;24.30;72.20;;;24.78;39.06;98495.00;4892751;28;123084;-81
2023/05/07 10:32:50;;;;;;;;;;;24.30;70.80;;;24.81;38.90;98505.47;4886616;28;124891;-82
2023/05/07 10:35:29;;;;;;;;;;;24.30;70.90;;;24.88;39.00;98505.41;4885853;28;119485;-83
2023/05/07 10:37:55;;;;;;;;;;;24.30;70.80;;;24.99;38.84;98499.69;4862446;28;118757;-83
2023/05/07 10:40:24;;;;;;;;;;;24.50;70.50;;;25.11;38.33;98501.97;4868251;28;123680;-84
2023/05/07 10:43:07;;;;;;;;;;;24.60;70.40;;;25.24;38.11;98498.66;4866719;28;123889;-85
2023/05/07 10:45:36;;;;;;;;;;;24.70;69.90;;;25.34;37.86;98492.91;4869042;28;119923;-83
2023/05/07 10:48:12;;;;;;;;;;;24.80;69.70;;;25.40;37.90;98500.94;4866718;28;118552;-82
2023/05/07 10:50:49;;;;;;;;;;;24.80;69.60;;;25.44;37.44;98502.53;4856702;28;123642;-83
2023/05/07 10:53:18;;;;;;;;;;;24.90;68.90;;;25.51;37.69;98490.31;4863304;28;124512;-83
2023/05/07 10:55:51;;;;;;;;;;;25.10;69.20;;;25.58;37.94;98490.25;4872582;28;119681;-84
2023/05/07 10:58:28;;;;;;;;;;;25.10;69.00;;;25.64;37.22;98487.75;4866451;28;117953;-83
2023/05/07 11:01:01;;;;;;;;;;;25.20;68.70;;;25.72;37.50;98477.94;4864821;28;124927;-83
2023/05/07 11:03:29;;;;;;;;;;;25.20;68.40;;;25.76;36.62;98482.34;4852773;28;122960;-83
2023/05/07 11:06:13;;;;;;;;;;;25.30;66.60;;;25.79;36.08;98483.50;4876809;28;120321;-83
2023/05/07 11:08:58;;;;;;;;;;;25.30;66.20;;;25.83;35.96;98478.63;4872099;28;119950;-83
2023/05/07 11:11:51;;;;;;;;;;;25.30;66.10;;;25.89;36.65;98490.31;4908691;28;124830;-82
2023/05/07 11:14:41;;;;;;;;;;;25.40;66.50;;;25.98;36.12;98485.75;4888723;28;122180;-83